createdAt,value
2022-11-02T00:01:55.846Z,14.48
2022-11-02T00:04:24.236Z,8.75
2022-11-02T00:06:52.484Z,15.30
2022-11-02T00:09:20.741Z,11.57
2022-11-02T00:11:48.902Z,6.35
2022-11-02T00:14:19.733Z,8.02
2022-11-02T00:16:48.167Z,7.68
2022-11-02T00:19:16.521Z,14.25
2022-11-02T00:21:44.981Z,5.07
2022-11-02T00:24:14.000Z,11.95
2022-11-02T00:26:44.468Z,15.45
2022-11-02T00:29:12.738Z,6.45
2022-11-02T00:31:42.333Z,15.70
2022-11-02T00:34:10.764Z,8.15
2022-11-02T00:36:39.149Z,3.95
2022-11-02T00:39:07.495Z,7.88
2022-11-02T00:41:35.896Z,12.70
2022-11-02T00:44:04.669Z,4.90
2022-11-02T00:46:39.715Z,7.70
2022-11-02T00:49:09.956Z,6.32
2022-11-02T00:51:38.245Z,9.35
2022-11-02T00:54:06.581Z,9.25
2022-11-02T00:56:34.798Z,13.75
2022-11-02T00:59:03.022Z,5.75
2022-11-02T01:01:31.412Z,7.40
2022-11-02T01:03:59.891Z,8.43
2022-11-02T01:06:29.560Z,6.82
2022-11-02T01:08:57.765Z,6.53
2022-11-02T01:11:27.148Z,8.63
2022-11-02T01:13:55.480Z,7.45
2022-11-02T01:16:23.892Z,5.90
2022-11-02T01:18:54.282Z,6.40
2022-11-02T01:21:23.093Z,10.48
2022-11-02T01:23:53.368Z,10.68
2022-11-02T01:26:23.031Z,12.80
2022-11-02T01:28:51.229Z,6.43
2022-11-02T01:31:19.414Z,10.27
2022-11-02T01:33:47.918Z,5.28
2022-11-02T01:38:56.563Z,4.47
2022-11-02T01:41:25.924Z,6.32
2022-11-02T01:43:59.000Z,9.35
2022-11-02T01:46:38.612Z,6.97
2022-11-02T01:49:13.069Z,8.52
2022-11-02T01:51:47.741Z,11.88
2022-11-02T01:54:22.672Z,9.88
2022-11-02T01:56:56.606Z,11.73
2022-11-02T01:59:32.098Z,11.65
2022-11-02T02:02:00.639Z,6.80
2022-11-02T02:04:30.217Z,7.97
2022-11-02T02:07:00.381Z,5.50
2022-11-02T02:09:31.147Z,6.47
2022-11-02T02:11:59.390Z,6.38
2022-11-02T02:14:27.691Z,9.35
2022-11-02T02:17:20.638Z,6.05
2022-11-02T02:19:58.995Z,4.45
2022-11-02T02:23:22.501Z,10.55
2022-11-02T02:26:27.796Z,7.50
2022-11-02T02:29:04.763Z,3.78
2022-11-02T02:31:41.444Z,10.70
2022-11-02T02:34:19.777Z,15.93
2022-11-02T02:36:54.114Z,10.43
2022-11-02T02:39:35.966Z,8.68
2022-11-02T02:42:15.666Z,10.00
2022-11-02T02:44:55.436Z,10.63
2022-11-02T02:47:29.101Z,5.10
2022-11-02T02:50:07.997Z,6.60
2022-11-02T02:52:38.711Z,7.88
2022-11-02T02:55:14.952Z,7.65
2022-11-02T02:57:43.300Z,13.57
2022-11-02T03:00:17.839Z,6.50
2022-11-02T03:03:01.198Z,13.70
2022-11-02T03:05:33.870Z,12.13
2022-11-02T03:08:09.574Z,8.52
2022-11-02T03:10:47.841Z,6.97
2022-11-02T03:13:48.698Z,7.90
2022-11-02T03:16:38.554Z,16.08
2022-11-02T03:19:21.256Z,9.48
2022-11-02T03:22:00.648Z,5.38
2022-11-02T03:24:36.714Z,15.40
2022-11-02T03:27:15.752Z,5.57
2022-11-02T03:29:55.149Z,11.68
2022-11-02T03:32:33.609Z,8.90
2022-11-02T03:35:07.946Z,17.48
2022-11-02T03:37:42.846Z,6.13
2022-11-02T03:40:19.361Z,13.57
2022-11-02T03:42:50.857Z,12.35
2022-11-02T03:45:23.362Z,6.05
2022-11-02T03:48:00.672Z,18.15
2022-11-02T03:50:28.998Z,7.15
2022-11-02T03:53:06.397Z,10.98
2022-11-02T03:55:41.125Z,9.65
2022-11-02T03:58:12.884Z,10.20
2022-11-02T04:00:51.320Z,13.98
2022-11-02T04:03:24.185Z,13.85
2022-11-02T04:05:52.772Z,11.63
2022-11-02T04:08:31.596Z,7.10
2022-11-02T04:11:17.206Z,14.68
2022-11-02T04:14:02.799Z,6.82
2022-11-02T04:16:31.424Z,12.27
2022-11-02T04:19:18.741Z,14.10
2022-11-02T04:22:00.761Z,9.00
2022-11-02T04:24:46.483Z,7.35
2022-11-02T04:27:19.701Z,12.98
2022-11-02T04:29:49.187Z,12.93
2022-11-02T04:32:37.853Z,9.55
2022-11-02T04:35:08.786Z,7.32
2022-11-02T04:38:12.700Z,7.47
2022-11-02T04:40:40.955Z,13.35
2022-11-02T04:43:09.254Z,12.35
2022-11-02T04:45:37.605Z,7.00
2022-11-02T04:48:09.194Z,8.75
2022-11-02T04:50:38.996Z,11.00
2022-11-02T04:53:08.292Z,8.48
2022-11-02T04:55:36.543Z,7.85
2022-11-02T04:58:04.869Z,9.23
2022-11-02T05:00:33.497Z,12.20
2022-11-02T05:03:01.670Z,7.40
2022-11-02T05:05:29.908Z,13.55
2022-11-02T05:07:59.734Z,5.20
2022-11-02T05:10:27.977Z,6.68
2022-11-02T05:12:58.799Z,5.60
2022-11-02T05:15:27.613Z,12.23
2022-11-02T05:17:56.059Z,13.32
2022-11-02T05:20:24.317Z,9.88
2022-11-02T05:22:52.471Z,6.90
2022-11-02T05:25:22.048Z,7.50
2022-11-02T05:27:50.215Z,5.50
2022-11-02T05:30:18.608Z,5.85
2022-11-02T05:32:46.746Z,7.53
2022-11-02T05:35:15.222Z,12.20
2022-11-02T05:37:43.429Z,8.75
2022-11-02T05:40:14.045Z,12.95
2022-11-02T05:42:43.766Z,10.63
2022-11-02T05:45:12.165Z,6.82
2022-11-02T05:47:40.620Z,15.90
2022-11-02T05:50:11.151Z,4.82
2022-11-02T05:52:39.491Z,5.55
2022-11-02T05:55:09.217Z,5.15
2022-11-02T05:57:37.370Z,13.05
2022-11-02T06:00:09.546Z,11.95
2022-11-02T06:02:38.038Z,10.90
2022-11-02T06:05:07.670Z,4.57
2022-11-02T06:07:36.062Z,7.43
2022-11-02T06:10:04.745Z,7.13
2022-11-02T06:12:33.123Z,9.85
2022-11-02T06:15:01.289Z,5.32
2022-11-02T06:17:38.104Z,13.35
2022-11-02T06:20:08.360Z,9.82
2022-11-02T06:22:41.180Z,8.75
2022-11-02T06:25:11.044Z,11.55
2022-11-02T06:27:44.931Z,5.72
2022-11-02T06:30:14.475Z,9.98
2022-11-02T06:32:48.577Z,10.38
2022-11-02T06:35:17.778Z,9.13
2022-11-02T06:37:46.750Z,16.67
2022-11-02T06:40:16.332Z,11.73
2022-11-02T06:45:32.891Z,7.90
2022-11-02T06:48:02.907Z,8.77
2022-11-02T06:50:31.131Z,11.18
2022-11-02T06:52:59.324Z,6.05
2022-11-02T06:55:27.468Z,12.93
2022-11-02T06:57:55.875Z,28.40
2022-11-02T07:00:24.374Z,7.07
2022-11-02T07:03:03.827Z,10.50
2022-11-02T07:05:32.849Z,26.20
2022-11-02T07:08:01.228Z,21.85
2022-11-02T07:10:30.267Z,10.90
2022-11-02T07:13:02.417Z,16.50
2022-11-02T07:15:31.130Z,12.40
2022-11-02T07:17:59.305Z,13.20
2022-11-02T07:20:30.286Z,13.43
2022-11-02T07:23:01.544Z,18.60
2022-11-02T07:25:32.790Z,21.52
2022-11-02T07:28:02.682Z,16.38
2022-11-02T07:30:32.870Z,17.20
2022-11-02T07:33:01.315Z,10.35
2022-11-02T07:35:31.143Z,16.50
2022-11-02T07:38:01.358Z,17.35
2022-11-02T07:40:32.144Z,11.25
2022-11-02T07:43:01.501Z,18.50
2022-11-02T07:45:30.192Z,15.27
2022-11-02T07:47:58.307Z,12.15
2022-11-02T07:50:28.500Z,18.67
2022-11-02T07:53:00.653Z,13.63
2022-11-02T07:55:31.844Z,15.68
2022-11-02T07:58:02.385Z,13.13
2022-11-02T08:00:35.612Z,19.88
2022-11-02T08:03:05.700Z,7.63
2022-11-02T08:05:37.021Z,15.93
2022-11-02T08:08:09.538Z,12.02
2022-11-02T08:10:40.488Z,16.10
2022-11-02T08:13:09.819Z,22.35
2022-11-02T08:15:38.586Z,13.68
2022-11-02T08:18:10.573Z,7.88
2022-11-02T08:20:38.682Z,7.15
2022-11-02T08:23:08.566Z,15.30
2022-11-02T08:25:37.110Z,10.23
2022-11-02T08:28:07.536Z,8.68
2022-11-02T08:30:36.253Z,20.10
2022-11-02T08:33:06.852Z,11.35
2022-11-02T08:35:37.564Z,8.57
2022-11-02T08:38:08.296Z,13.98
2022-11-02T08:40:37.716Z,23.25
2022-11-02T08:43:09.204Z,10.20
2022-11-02T08:46:13.876Z,9.13
2022-11-02T08:48:28.615Z,8.90
2022-11-02T08:50:56.961Z,18.80
2022-11-02T08:53:26.515Z,10.07
2022-11-02T08:55:54.754Z,15.50
2022-11-02T08:58:22.888Z,4.70
2022-11-02T09:00:54.031Z,7.72
2022-11-02T09:03:26.961Z,10.98
2022-11-02T09:06:00.155Z,7.82
2022-11-02T09:08:33.381Z,11.82
2022-11-02T09:11:04.363Z,7.93
2022-11-02T09:13:32.694Z,14.23
2022-11-02T09:16:02.781Z,8.43
2022-11-02T09:18:31.762Z,8.93
2022-11-02T09:21:03.714Z,11.32
2022-11-02T09:23:34.120Z,10.65
2022-11-02T09:26:02.605Z,7.82
2022-11-02T09:28:31.107Z,9.13
2022-11-02T09:30:59.561Z,13.50
2022-11-02T09:33:29.795Z,9.60
2022-11-02T09:36:03.367Z,9.15
2022-11-02T09:38:33.547Z,7.85
2022-11-02T09:41:15.895Z,5.93
2022-11-02T09:44:00.165Z,6.18
2022-11-02T09:46:35.064Z,6.00
2022-11-02T09:49:12.467Z,8.20
2022-11-02T09:51:46.191Z,11.43
2022-11-02T09:54:21.323Z,9.07
2022-11-02T09:56:52.705Z,8.20
2022-11-02T09:59:23.973Z,9.55
2022-11-02T10:02:03.965Z,9.60
2022-11-02T10:04:52.410Z,6.03
2022-11-02T10:07:39.937Z,9.65
2022-11-02T10:10:19.054Z,9.00
2022-11-02T10:13:04.563Z,6.90
2022-11-02T10:15:41.165Z,4.85
2022-11-02T10:18:18.499Z,5.90
2022-11-02T10:20:52.415Z,10.15
2022-11-02T10:23:30.505Z,9.55
2022-11-02T10:26:02.113Z,6.20
2022-11-02T10:28:34.914Z,6.28
2022-11-02T10:31:04.265Z,10.82
2022-11-02T10:33:32.977Z,12.30
2022-11-02T10:36:23.108Z,11.45
2022-11-02T10:39:10.547Z,5.30
2022-11-02T10:42:05.226Z,6.00
2022-11-02T10:44:58.536Z,9.65
2022-11-02T10:47:34.853Z,5.50
2022-11-02T10:50:32.761Z,6.30
2022-11-02T10:56:02.760Z,9.40
2022-11-02T10:59:06.138Z,9.82
2022-11-02T11:01:34.529Z,12.43
2022-11-02T11:04:05.804Z,7.55
2022-11-02T11:06:40.174Z,4.35
2022-11-02T11:09:17.956Z,10.95
2022-11-02T11:11:56.996Z,11.68
2022-11-02T11:20:34.580Z,7.38
2022-11-02T11:23:19.476Z,11.25
2022-11-02T11:25:58.203Z,8.23
2022-11-02T11:28:31.528Z,6.10
2022-11-02T11:31:10.162Z,6.95
2022-11-02T11:33:49.806Z,7.88
2022-11-02T11:36:31.315Z,6.75
2022-11-02T11:39:05.183Z,6.13
2022-11-02T11:41:38.882Z,13.60
2022-11-02T11:44:19.059Z,5.80
2022-11-02T11:46:56.901Z,5.40
2022-11-02T11:52:29.976Z,5.18
2022-11-02T11:55:01.939Z,7.63
2022-11-02T11:57:33.732Z,10.63
2022-11-02T12:00:04.992Z,5.43
2022-11-02T12:02:43.993Z,11.10
2022-11-02T12:05:17.280Z,6.70
2022-11-02T12:08:16.927Z,6.47
2022-11-02T12:11:19.014Z,8.52
2022-11-02T12:14:06.245Z,13.77
2022-11-02T12:17:01.102Z,5.78
2022-11-02T12:19:49.783Z,4.93
2022-11-02T12:22:35.772Z,5.97
2022-11-02T12:25:37.542Z,11.10
2022-11-02T12:28:24.042Z,7.28
2022-11-02T12:31:11.281Z,4.77
2022-11-02T12:34:10.497Z,6.95
2022-11-02T12:40:15.666Z,7.10
2022-11-02T12:42:56.531Z,7.15
2022-11-02T12:45:48.159Z,7.25
2022-11-02T12:48:31.150Z,9.55
2022-11-02T12:51:05.957Z,5.57
2022-11-02T12:53:47.613Z,6.57
2022-11-02T12:56:22.904Z,10.23
2022-11-02T12:58:51.255Z,9.18
2022-11-02T13:01:28.615Z,10.52
2022-11-02T13:04:10.322Z,4.68
2022-11-02T13:06:45.280Z,5.82
2022-11-02T13:09:24.570Z,10.82
2022-11-02T13:12:03.531Z,5.88
2022-11-02T13:14:41.749Z,9.48
2022-11-02T13:17:19.544Z,5.47
2022-11-02T13:19:55.167Z,7.60
2022-11-02T13:22:34.241Z,13.52
2022-11-02T13:25:18.460Z,5.45
2022-11-02T13:27:54.398Z,8.05
2022-11-02T13:30:23.072Z,8.40
2022-11-02T13:33:00.787Z,14.35
2022-11-02T13:35:36.192Z,6.88
2022-11-02T13:38:20.883Z,12.18
2022-11-02T13:41:06.171Z,16.17
2022-11-02T13:44:16.622Z,8.80
2022-11-02T13:47:39.211Z,10.48
2022-11-02T13:50:16.909Z,6.63
2022-11-02T13:52:53.091Z,6.38
2022-11-02T13:55:26.837Z,16.80
2022-11-02T13:58:03.097Z,7.65
2022-11-02T14:00:45.215Z,7.28
2022-11-02T14:03:22.068Z,9.95
2022-11-02T14:08:35.986Z,11.10
2022-11-02T14:11:24.612Z,8.93
2022-11-02T14:14:24.913Z,4.32
2022-11-02T14:17:18.193Z,8.05
2022-11-02T14:20:07.090Z,12.43
2022-11-02T14:22:36.683Z,9.30
2022-11-02T14:25:26.731Z,7.43
2022-11-02T14:27:57.263Z,9.32
2022-11-02T14:30:46.787Z,8.45
2022-11-02T14:33:44.824Z,10.15
2022-11-02T14:39:18.005Z,9.05
2022-11-02T14:42:35.517Z,13.90
2022-11-02T14:45:29.013Z,5.53
2022-11-02T14:48:18.815Z,11.70
2022-11-02T14:51:13.684Z,6.68
2022-11-02T14:53:43.549Z,10.98
2022-11-02T14:56:12.541Z,10.93
2022-11-02T14:58:52.825Z,9.80
2022-11-02T15:01:21.820Z,7.28
2022-11-02T15:03:53.747Z,5.55
2022-11-02T15:06:27.513Z,12.70
2022-11-02T15:09:00.531Z,12.10
2022-11-02T15:11:51.285Z,7.30
2022-11-02T15:14:57.100Z,7.25
2022-11-02T15:18:17.511Z,5.63
2022-11-02T15:20:47.685Z,8.07
2022-11-02T15:23:31.120Z,5.70
2022-11-02T15:26:02.462Z,8.57
2022-11-02T15:28:36.009Z,7.90
2022-11-02T15:31:16.218Z,6.10
2022-11-02T15:33:48.581Z,12.10
2022-11-02T15:36:31.161Z,6.75
2022-11-02T15:39:03.585Z,13.60
2022-11-02T15:41:44.798Z,7.03
2022-11-02T15:45:26.692Z,8.45
2022-11-02T15:48:18.550Z,15.02
2022-11-02T15:51:00.940Z,10.07
2022-11-02T15:53:52.185Z,8.45
2022-11-02T15:56:47.590Z,11.65
2022-11-02T16:00:10.087Z,10.68
2022-11-02T16:02:45.598Z,8.75
2022-11-02T16:05:24.570Z,5.70
2022-11-02T16:08:10.412Z,9.60
2022-11-02T16:14:25.124Z,14.25
2022-11-02T16:17:01.933Z,9.10
2022-11-02T16:19:30.480Z,7.97
2022-11-02T16:22:05.829Z,13.38
2022-11-02T16:24:35.880Z,13.50
2022-11-02T16:30:13.839Z,10.85
2022-11-02T16:32:43.815Z,8.80
2022-11-02T16:35:17.025Z,7.43
2022-11-02T16:37:53.547Z,6.25
2022-11-02T16:40:28.522Z,8.10
2022-11-02T16:42:59.874Z,8.60
2022-11-02T16:45:43.367Z,13.55
2022-11-02T16:48:28.656Z,10.15
2022-11-02T16:51:22.519Z,10.35
2022-11-02T16:53:54.872Z,9.75
2022-11-02T16:56:33.211Z,9.63
2022-11-02T16:59:09.483Z,10.82
2022-11-02T17:01:43.922Z,4.17
2022-11-02T17:04:27.440Z,7.60
2022-11-02T17:07:15.423Z,10.13
2022-11-02T17:09:55.515Z,12.35
2022-11-02T17:12:40.563Z,10.90
2022-11-02T17:15:22.290Z,8.82
2022-11-02T17:17:55.314Z,8.50
2022-11-02T17:20:28.455Z,9.20
2022-11-02T17:23:02.215Z,11.80
2022-11-02T17:25:38.679Z,10.77
2022-11-02T17:28:45.150Z,6.32
2022-11-02T17:31:38.073Z,8.48
2022-11-02T17:34:16.394Z,8.70
2022-11-02T17:36:50.436Z,9.48
2022-11-02T17:39:22.191Z,20.30
2022-11-02T17:42:15.381Z,16.98
2022-11-02T17:44:51.154Z,15.52
2022-11-02T17:47:22.554Z,13.60
2022-11-02T17:49:51.884Z,8.68
2022-11-02T17:52:21.048Z,13.25
2022-11-02T17:54:49.362Z,8.23
2022-11-02T17:57:19.341Z,9.68
2022-11-02T17:59:48.416Z,8.45
2022-11-02T18:02:17.826Z,8.48
2022-11-02T18:04:47.679Z,9.50
2022-11-02T18:07:16.946Z,7.35
2022-11-02T18:09:56.356Z,17.80
2022-11-02T18:12:25.385Z,10.00
2022-11-02T18:14:54.159Z,12.40
2022-11-02T18:17:23.169Z,10.55
2022-11-02T18:20:08.043Z,9.93
2022-11-02T18:22:37.900Z,6.70
2022-11-02T18:25:11.049Z,13.75
2022-11-02T18:27:44.076Z,12.35
2022-11-02T18:30:16.842Z,11.88
2022-11-02T18:32:49.326Z,6.05
2022-11-02T18:35:24.498Z,20.63
2022-11-02T18:38:10.918Z,14.98
2022-11-02T18:40:45.457Z,16.30
2022-11-02T18:43:19.483Z,15.95
2022-11-02T18:46:04.494Z,12.45
2022-11-02T18:48:34.670Z,22.30
2022-11-02T18:51:17.249Z,10.75
2022-11-02T18:53:47.202Z,11.10
2022-11-02T18:56:16.212Z,18.75
2022-11-02T19:01:47.449Z,12.75
2022-11-02T19:04:30.787Z,16.15
2022-11-02T19:10:19.443Z,10.98
2022-11-02T19:12:49.004Z,18.50
2022-11-02T19:15:17.610Z,7.80
2022-11-02T19:18:00.937Z,12.57
2022-11-02T19:20:32.926Z,24.58
2022-11-02T19:23:39.656Z,11.60
2022-11-02T19:26:10.107Z,10.07
2022-11-02T19:28:39.936Z,12.43
2022-11-02T19:31:10.806Z,11.05
2022-11-02T19:33:42.186Z,22.98
2022-11-02T19:36:14.819Z,21.33
2022-11-02T19:38:45.299Z,15.80
2022-11-02T19:41:17.237Z,12.73
2022-11-02T19:43:51.616Z,20.90
2022-11-02T19:46:35.240Z,16.48
2022-11-02T19:49:06.455Z,15.00
2022-11-02T19:51:56.310Z,19.10
2022-11-02T19:54:37.882Z,13.88
2022-11-02T19:57:14.187Z,16.65
2022-11-02T19:59:43.639Z,17.90
2022-11-02T20:02:15.606Z,19.17
2022-11-02T20:04:46.710Z,17.00
2022-11-02T20:07:15.295Z,18.85
2022-11-02T20:09:45.191Z,8.00
2022-11-02T20:12:17.485Z,17.45
2022-11-02T20:14:47.965Z,9.70
2022-11-02T20:17:31.167Z,14.82
2022-11-02T20:20:03.297Z,21.67
2022-11-02T20:22:35.396Z,10.70
2022-11-02T20:25:07.863Z,25.00
2022-11-02T20:27:37.188Z,18.30
2022-11-02T20:30:07.513Z,13.20
2022-11-02T20:32:35.898Z,16.25
2022-11-02T20:35:11.017Z,15.32
2022-11-02T20:37:41.679Z,16.10
2022-11-02T20:40:15.976Z,13.90
2022-11-02T20:42:45.803Z,22.27
2022-11-02T20:45:17.406Z,18.80
2022-11-02T20:47:45.996Z,11.93
2022-11-02T20:50:16.636Z,14.23
2022-11-02T20:52:48.002Z,21.08
2022-11-02T20:55:19.078Z,19.02
2022-11-02T20:57:50.110Z,12.15
2022-11-02T21:00:24.807Z,12.80
2022-11-02T21:02:53.363Z,20.75
2022-11-02T21:05:23.664Z,20.00
2022-11-02T21:07:53.476Z,16.02
2022-11-02T21:10:23.376Z,11.25
2022-11-02T21:13:09.172Z,10.88
2022-11-02T21:15:38.142Z,17.48
2022-11-02T21:18:07.209Z,17.02
2022-11-02T21:20:35.684Z,11.45
2022-11-02T21:23:06.113Z,22.83
2022-11-02T21:25:36.724Z,13.73
2022-11-02T21:28:10.441Z,12.52
2022-11-02T21:30:38.862Z,15.07
2022-11-02T21:33:07.377Z,13.05
2022-11-02T21:35:36.359Z,14.38
2022-11-02T21:38:07.011Z,14.65
2022-11-02T21:40:38.497Z,17.55
2022-11-02T21:43:07.390Z,21.25
2022-11-02T21:45:38.070Z,16.15
2022-11-02T21:48:06.806Z,14.57
2022-11-02T21:50:35.329Z,17.42
2022-11-02T21:53:03.778Z,23.52
2022-11-02T21:55:32.293Z,18.10
2022-11-02T21:58:03.733Z,19.00
2022-11-02T22:00:45.963Z,16.92
2022-11-02T22:03:15.349Z,19.05
2022-11-02T22:05:56.551Z,18.45
2022-11-02T22:08:40.426Z,17.77
2022-11-02T22:11:11.418Z,16.38
2022-11-02T22:13:51.122Z,15.82
2022-11-02T22:16:25.389Z,14.18
2022-11-02T22:18:56.458Z,27.40
2022-11-02T22:21:29.226Z,13.93
2022-11-02T22:23:58.444Z,24.65
2022-11-02T22:26:30.735Z,23.23
2022-11-02T22:29:01.206Z,23.42
2022-11-02T22:31:32.055Z,30.98
2022-11-02T22:34:08.047Z,26.05
2022-11-02T22:36:39.068Z,33.25
2022-11-02T22:39:08.585Z,26.88
2022-11-02T22:41:39.390Z,25.40
2022-11-02T22:44:11.099Z,34.45
2022-11-02T22:46:41.601Z,30.20
2022-11-02T22:49:11.937Z,24.13
2022-11-02T22:51:42.164Z,27.98
2022-11-02T22:54:14.861Z,28.38
2022-11-02T22:56:43.713Z,23.80
2022-11-02T22:59:14.237Z,30.73
2022-11-02T23:01:43.377Z,33.40
2022-11-02T23:04:12.961Z,28.23
2022-11-02T23:06:41.343Z,32.40
2022-11-02T23:09:12.275Z,35.30
2022-11-02T23:11:40.624Z,23.48
2022-11-02T23:14:12.981Z,27.40
2022-11-02T23:16:43.261Z,21.52
2022-11-02T23:19:25.019Z,22.80
2022-11-02T23:22:09.940Z,18.13
2022-11-02T23:24:55.882Z,24.67
2022-11-02T23:27:24.525Z,18.13
2022-11-02T23:30:11.699Z,22.75
2022-11-02T23:32:40.128Z,31.15
2022-11-02T23:35:27.048Z,31.50
2022-11-02T23:38:04.419Z,22.90
2022-11-02T23:40:33.553Z,28.85
2022-11-02T23:43:01.830Z,24.85
2022-11-02T23:45:31.252Z,22.05
2022-11-02T23:48:00.823Z,25.42
2022-11-02T23:50:50.851Z,25.17
2022-11-02T23:53:39.782Z,23.95
2022-11-02T23:56:32.888Z,20.42
2022-11-02T23:59:07.243Z,25.80
